sensor_id;sensor_type;location;lat;lon;timestamp;temperature;humidity
3262;DHT22;1643;47.746;9.000;2024-01-06T00:00:34;7.10;99.90
3262;DHT22;1643;47.746;9.000;2024-01-06T00:03:00;7.10;99.90
3262;DHT22;1643;47.746;9.000;2024-01-06T00:05:26;7.10;99.90
3262;DHT22;1643;47.746;9.000;2024-01-06T00:07:51;7.10;99.90
3262;DHT22;1643;47.746;9.000;2024-01-06T00:10:17;7.10;99.90
3262;DHT22;1643;47.746;9.000;2024-01-06T00:12:43;7.10;99.90
3262;DHT22;1643;47.746;9.000;2024-01-06T00:15:09;7.00;99.90
3262;DHT22;1643;47.746;9.000;2024-01-06T00:17:36;7.00;99.90
3262;DHT22;1643;47.746;9.000;2024-01-06T00:20:02;7.00;99.90
3262;DHT22;1643;47.746;9.000;2024-01-06T00:22:28;7.00;99.90
3262;DHT22;1643;47.746;9.000;2024-01-06T00:24:53;7.00;99.90
3262;DHT22;1643;47.746;9.000;2024-01-06T00:27:19;7.00;99.90
3262;DHT22;1643;47.746;9.000;2024-01-06T00:29:45;7.10;99.90
3262;DHT22;1643;47.746;9.000;2024-01-06T00:32:10;7.10;99.90
3262;DHT22;1643;47.746;9.000;2024-01-06T00:34:37;7.00;99.90
3262;DHT22;1643;47.746;9.000;2024-01-06T00:37:02;7.10;99.90
3262;DHT22;1643;47.746;9.000;2024-01-06T00:39:28;7.10;99.90
3262;DHT22;1643;47.746;9.000;2024-01-06T00:41:54;7.00;99.90
3262;DHT22;1643;47.746;9.000;2024-01-06T00:44:20;7.10;99.90
3262;DHT22;1643;47.746;9.000;2024-01-06T00:46:45;7.10;99.90
3262;DHT22;1643;47.746;9.000;2024-01-06T00:49:11;7.10;99.90
3262;DHT22;1643;47.746;9.000;2024-01-06T00:51:36;7.10;99.90
3262;DHT22;1643;47.746;9.000;2024-01-06T00:54:02;7.00;99.90
3262;DHT22;1643;47.746;9.000;2024-01-06T00:56:28;7.10;99.90
3262;DHT22;1643;47.746;9.000;2024-01-06T00:58:54;7.00;99.90
3262;DHT22;1643;47.746;9.000;2024-01-06T01:01:19;6.90;99.90
3262;DHT22;1643;47.746;9.000;2024-01-06T01:03:46;6.90;99.90
3262;DHT22;1643;47.746;9.000;2024-01-06T01:06:11;6.90;99.90
3262;DHT22;1643;47.746;9.000;2024-01-06T01:08:37;6.80;99.90
3262;DHT22;1643;47.746;9.000;2024-01-06T01:11:03;6.80;99.90
3262;DHT22;1643;47.746;9.000;2024-01-06T01:13:29;6.80;99.90
3262;DHT22;1643;47.746;9.000;2024-01-06T01:15:54;6.80;99.90
3262;DHT22;1643;47.746;9.000;2024-01-06T01:18:20;6.80;99.90
3262;DHT22;1643;47.746;9.000;2024-01-06T01:20:45;6.80;99.90
3262;DHT22;1643;47.746;9.000;2024-01-06T01:23:11;6.80;99.90
3262;DHT22;1643;47.746;9.000;2024-01-06T01:25:37;6.80;99.90
3262;DHT22;1643;47.746;9.000;2024-01-06T01:28:02;6.80;99.90
3262;DHT22;1643;47.746;9.000;2024-01-06T01:30:28;6.80;99.90
3262;DHT22;1643;47.746;9.000;2024-01-06T01:32:54;6.80;99.90
3262;DHT22;1643;47.746;9.000;2024-01-06T01:35:19;6.70;99.90
3262;DHT22;1643;47.746;9.000;2024-01-06T01:37:45;6.70;99.90
3262;DHT22;1643;47.746;9.000;2024-01-06T01:40:11;6.70;99.90
3262;DHT22;1643;47.746;9.000;2024-01-06T01:42:36;6.70;99.90
3262;DHT22;1643;47.746;9.000;2024-01-06T01:45:04;6.80;99.90
3262;DHT22;1643;47.746;9.000;2024-01-06T01:47:29;6.70;99.90
3262;DHT22;1643;47.746;9.000;2024-01-06T01:49:55;6.70;99.90
3262;DHT22;1643;47.746;9.000;2024-01-06T01:52:22;6.70;99.90
3262;DHT22;1643;47.746;9.000;2024-01-06T01:54:48;6.70;99.90
3262;DHT22;1643;47.746;9.000;2024-01-06T01:57:14;6.70;99.90
3262;DHT22;1643;47.746;9.000;2024-01-06T01:59:40;6.70;99.90
3262;DHT22;1643;47.746;9.000;2024-01-06T02:02:08;6.70;99.90
3262;DHT22;1643;47.746;9.000;2024-01-06T02:04:33;6.60;99.90
3262;DHT22;1643;47.746;9.000;2024-01-06T02:06:59;6.60;99.90
3262;DHT22;1643;47.746;9.000;2024-01-06T02:09:25;6.60;99.90
3262;DHT22;1643;47.746;9.000;2024-01-06T02:11:56;6.70;99.90
3262;DHT22;1643;47.746;9.000;2024-01-06T02:14:22;6.70;99.90
3262;DHT22;1643;47.746;9.000;2024-01-06T02:16:47;6.60;99.90
3262;DHT22;1643;47.746;9.000;2024-01-06T02:19:13;6.70;99.90
3262;DHT22;1643;47.746;9.000;2024-01-06T02:21:42;6.70;99.90
3262;DHT22;1643;47.746;9.000;2024-01-06T02:24:08;6.70;99.90
3262;DHT22;1643;47.746;9.000;2024-01-06T02:26:34;6.70;99.90
3262;DHT22;1643;47.746;9.000;2024-01-06T02:28:59;6.70;99.90
3262;DHT22;1643;47.746;9.000;2024-01-06T02:31:25;6.60;99.90
3262;DHT22;1643;47.746;9.000;2024-01-06T02:33:50;6.60;99.90
3262;DHT22;1643;47.746;9.000;2024-01-06T02:36:16;6.60;99.90
3262;DHT22;1643;47.746;9.000;2024-01-06T02:38:42;6.50;99.90
3262;DHT22;1643;47.746;9.000;2024-01-06T02:41:07;6.40;99.90
3262;DHT22;1643;47.746;9.000;2024-01-06T02:43:33;6.40;99.90
3262;DHT22;1643;47.746;9.000;2024-01-06T02:45:58;6.40;99.90
3262;DHT22;1643;47.746;9.000;2024-01-06T02:48:24;6.40;99.90
3262;DHT22;1643;47.746;9.000;2024-01-06T02:50:50;6.40;99.90
3262;DHT22;1643;47.746;9.000;2024-01-06T02:53:16;6.40;99.90
3262;DHT22;1643;47.746;9.000;2024-01-06T02:55:41;6.40;99.90
3262;DHT22;1643;47.746;9.000;2024-01-06T02:58:07;6.40;99.90
3262;DHT22;1643;47.746;9.000;2024-01-06T03:00:33;6.50;99.90
3262;DHT22;1643;47.746;9.000;2024-01-06T03:02:58;6.60;99.90
3262;DHT22;1643;47.746;9.000;2024-01-06T03:05:24;6.50;99.90
3262;DHT22;1643;47.746;9.000;2024-01-06T03:07:49;6.50;99.90
3262;DHT22;1643;47.746;9.000;2024-01-06T03:10:15;6.60;99.90
3262;DHT22;1643;47.746;9.000;2024-01-06T03:12:41;6.60;99.90
3262;DHT22;1643;47.746;9.000;2024-01-06T03:15:06;6.60;99.90
3262;DHT22;1643;47.746;9.000;2024-01-06T03:17:32;6.60;99.90
3262;DHT22;1643;47.746;9.000;2024-01-06T03:19:58;6.60;99.90
3262;DHT22;1643;47.746;9.000;2024-01-06T03:22:23;6.60;99.90
3262;DHT22;1643;47.746;9.000;2024-01-06T03:24:49;6.60;99.90
3262;DHT22;1643;47.746;9.000;2024-01-06T03:27:14;6.60;99.90
3262;DHT22;1643;47.746;9.000;2024-01-06T03:29:40;6.60;99.90
3262;DHT22;1643;47.746;9.000;2024-01-06T03:32:06;6.60;99.90
3262;DHT22;1643;47.746;9.000;2024-01-06T03:34:32;6.60;99.90
3262;DHT22;1643;47.746;9.000;2024-01-06T03:36:57;6.60;99.90
3262;DHT22;1643;47.746;9.000;2024-01-06T03:39:23;6.60;99.90
3262;DHT22;1643;47.746;9.000;2024-01-06T03:41:49;6.60;99.90
3262;DHT22;1643;47.746;9.000;2024-01-06T03:44:14;6.60;99.90
3262;DHT22;1643;47.746;9.000;2024-01-06T03:46:40;6.60;99.90
3262;DHT22;1643;47.746;9.000;2024-01-06T03:49:06;6.50;99.90
3262;DHT22;1643;47.746;9.000;2024-01-06T03:51:31;6.50;99.90
3262;DHT22;1643;47.746;9.000;2024-01-06T03:53:57;6.50;99.90
3262;DHT22;1643;47.746;9.000;2024-01-06T03:56:22;6.50;99.90
3262;DHT22;1643;47.746;9.000;2024-01-06T03:58:48;6.50;99.90
3262;DHT22;1643;47.746;9.000;2024-01-06T04:01:14;6.50;99.90
3262;DHT22;1643;47.746;9.000;2024-01-06T04:03:39;6.50;99.90
3262;DHT22;1643;47.746;9.000;2024-01-06T04:06:09;6.50;99.90
3262;DHT22;1643;47.746;9.000;2024-01-06T04:08:36;6.50;99.90
3262;DHT22;1643;47.746;9.000;2024-01-06T04:11:02;6.50;99.90
3262;DHT22;1643;47.746;9.000;2024-01-06T04:13:28;6.60;99.90
3262;DHT22;1643;47.746;9.000;2024-01-06T04:15:53;6.50;99.90
3262;DHT22;1643;47.746;9.000;2024-01-06T04:18:19;6.60;99.90
3262;DHT22;1643;47.746;9.000;2024-01-06T04:20:45;6.50;99.90
3262;DHT22;1643;47.746;9.000;2024-01-06T04:23:10;6.40;99.90
3262;DHT22;1643;47.746;9.000;2024-01-06T04:25:36;6.50;99.90
3262;DHT22;1643;47.746;9.000;2024-01-06T04:28:02;6.50;99.90
3262;DHT22;1643;47.746;9.000;2024-01-06T04:30:27;6.50;99.90
3262;DHT22;1643;47.746;9.000;2024-01-06T04:32:53;6.50;99.90
3262;DHT22;1643;47.746;9.000;2024-01-06T04:35:20;6.50;99.90
3262;DHT22;1643;47.746;9.000;2024-01-06T04:37:45;6.50;99.90
3262;DHT22;1643;47.746;9.000;2024-01-06T04:40:11;6.60;99.90
3262;DHT22;1643;47.746;9.000;2024-01-06T04:42:37;6.50;99.90
3262;DHT22;1643;47.746;9.000;2024-01-06T04:45:03;6.60;99.90
3262;DHT22;1643;47.746;9.000;2024-01-06T04:47:29;6.60;99.90
3262;DHT22;1643;47.746;9.000;2024-01-06T04:49:56;6.60;99.90
3262;DHT22;1643;47.746;9.000;2024-01-06T04:52:22;6.60;99.90
3262;DHT22;1643;47.746;9.000;2024-01-06T04:54:48;6.60;99.90
3262;DHT22;1643;47.746;9.000;2024-01-06T04:57:13;6.60;99.90
3262;DHT22;1643;47.746;9.000;2024-01-06T04:59:40;6.60;99.90
3262;DHT22;1643;47.746;9.000;2024-01-06T05:02:06;6.60;99.90
3262;DHT22;1643;47.746;9.000;2024-01-06T05:04:32;6.60;99.90
3262;DHT22;1643;47.746;9.000;2024-01-06T05:06:58;6.50;99.90
3262;DHT22;1643;47.746;9.000;2024-01-06T05:09:25;6.50;99.90
3262;DHT22;1643;47.746;9.000;2024-01-06T05:11:50;6.60;99.90
3262;DHT22;1643;47.746;9.000;2024-01-06T05:14:16;6.60;99.90
3262;DHT22;1643;47.746;9.000;2024-01-06T05:16:42;6.60;99.90
3262;DHT22;1643;47.746;9.000;2024-01-06T05:19:08;6.60;99.90
3262;DHT22;1643;47.746;9.000;2024-01-06T05:21:34;6.60;99.90
3262;DHT22;1643;47.746;9.000;2024-01-06T05:24:01;6.60;99.90
3262;DHT22;1643;47.746;9.000;2024-01-06T05:26:26;6.50;99.90
3262;DHT22;1643;47.746;9.000;2024-01-06T05:28:52;6.50;99.90
3262;DHT22;1643;47.746;9.000;2024-01-06T05:31:18;6.50;99.90
3262;DHT22;1643;47.746;9.000;2024-01-06T05:33:43;6.50;99.90
3262;DHT22;1643;47.746;9.000;2024-01-06T05:36:09;6.50;99.90
3262;DHT22;1643;47.746;9.000;2024-01-06T05:38:36;6.40;99.90
3262;DHT22;1643;47.746;9.000;2024-01-06T05:41:02;6.40;99.90
3262;DHT22;1643;47.746;9.000;2024-01-06T05:43:28;6.40;99.90
3262;DHT22;1643;47.746;9.000;2024-01-06T05:45:53;6.50;99.90
3262;DHT22;1643;47.746;9.000;2024-01-06T05:48:19;6.40;99.90
3262;DHT22;1643;47.746;9.000;2024-01-06T05:50:45;6.40;99.90
3262;DHT22;1643;47.746;9.000;2024-01-06T05:53:10;6.40;99.90
3262;DHT22;1643;47.746;9.000;2024-01-06T05:55:36;6.40;99.90
3262;DHT22;1643;47.746;9.000;2024-01-06T05:58:02;6.40;99.90
3262;DHT22;1643;47.746;9.000;2024-01-06T06:00:28;6.30;99.90
3262;DHT22;1643;47.746;9.000;2024-01-06T06:02:57;6.40;99.90
3262;DHT22;1643;47.746;9.000;2024-01-06T06:05:22;6.40;99.90
3262;DHT22;1643;47.746;9.000;2024-01-06T06:07:48;6.40;99.90
3262;DHT22;1643;47.746;9.000;2024-01-06T06:10:13;6.40;99.90
3262;DHT22;1643;47.746;9.000;2024-01-06T06:12:41;6.40;99.90
3262;DHT22;1643;47.746;9.000;2024-01-06T06:15:07;6.40;99.90
3262;DHT22;1643;47.746;9.000;2024-01-06T06:17:33;6.40;99.90
3262;DHT22;1643;47.746;9.000;2024-01-06T06:19:59;6.40;99.90
3262;DHT22;1643;47.746;9.000;2024-01-06T06:22:26;6.40;99.90
3262;DHT22;1643;47.746;9.000;2024-01-06T06:24:59;6.40;99.90
3262;DHT22;1643;47.746;9.000;2024-01-06T06:27:25;6.50;99.90
3262;DHT22;1643;47.746;9.000;2024-01-06T06:29:52;6.50;99.90
3262;DHT22;1643;47.746;9.000;2024-01-06T06:32:17;6.40;99.90
3262;DHT22;1643;47.746;9.000;2024-01-06T06:34:43;6.40;99.90
3262;DHT22;1643;47.746;9.000;2024-01-06T06:37:09;6.40;99.90
3262;DHT22;1643;47.746;9.000;2024-01-06T06:39:34;6.40;99.90
3262;DHT22;1643;47.746;9.000;2024-01-06T06:42:03;6.40;99.90
3262;DHT22;1643;47.746;9.000;2024-01-06T06:44:29;6.40;99.90
3262;DHT22;1643;47.746;9.000;2024-01-06T06:46:55;6.50;99.90
3262;DHT22;1643;47.746;9.000;2024-01-06T06:49:21;6.40;99.90
3262;DHT22;1643;47.746;9.000;2024-01-06T06:51:46;6.50;99.90
3262;DHT22;1643;47.746;9.000;2024-01-06T06:54:17;6.50;99.90
3262;DHT22;1643;47.746;9.000;2024-01-06T06:56:43;6.50;99.90
3262;DHT22;1643;47.746;9.000;2024-01-06T06:59:08;6.50;99.90
3262;DHT22;1643;47.746;9.000;2024-01-06T07:01:34;6.50;99.90
3262;DHT22;1643;47.746;9.000;2024-01-06T07:04:01;6.60;99.90
3262;DHT22;1643;47.746;9.000;2024-01-06T07:06:27;6.60;99.90
3262;DHT22;1643;47.746;9.000;2024-01-06T07:08:53;6.60;99.90
3262;DHT22;1643;47.746;9.000;2024-01-06T07:11:19;6.50;99.90
3262;DHT22;1643;47.746;9.000;2024-01-06T07:13:44;6.50;99.90
3262;DHT22;1643;47.746;9.000;2024-01-06T07:16:10;6.50;99.90
3262;DHT22;1643;47.746;9.000;2024-01-06T07:18:37;6.50;99.90
3262;DHT22;1643;47.746;9.000;2024-01-06T07:21:04;6.50;99.90
3262;DHT22;1643;47.746;9.000;2024-01-06T07:23:32;6.50;99.90
3262;DHT22;1643;47.746;9.000;2024-01-06T07:25:58;6.50;99.90
3262;DHT22;1643;47.746;9.000;2024-01-06T07:28:24;6.50;99.90
3262;DHT22;1643;47.746;9.000;2024-01-06T07:30:49;6.50;99.90
3262;DHT22;1643;47.746;9.000;2024-01-06T07:33:15;6.50;99.90
3262;DHT22;1643;47.746;9.000;2024-01-06T07:35:41;6.50;99.90
3262;DHT22;1643;47.746;9.000;2024-01-06T07:38:12;6.50;99.90
3262;DHT22;1643;47.746;9.000;2024-01-06T07:40:38;6.40;99.90
3262;DHT22;1643;47.746;9.000;2024-01-06T07:43:04;6.40;99.90
3262;DHT22;1643;47.746;9.000;2024-01-06T07:45:31;6.40;99.90
3262;DHT22;1643;47.746;9.000;2024-01-06T07:47:57;6.30;99.90
3262;DHT22;1643;47.746;9.000;2024-01-06T07:50:23;6.40;99.90
3262;DHT22;1643;47.746;9.000;2024-01-06T07:52:48;6.40;99.90
3262;DHT22;1643;47.746;9.000;2024-01-06T07:55:14;6.40;99.90
3262;DHT22;1643;47.746;9.000;2024-01-06T07:57:40;6.30;99.90
3262;DHT22;1643;47.746;9.000;2024-01-06T08:00:06;6.40;99.90
3262;DHT22;1643;47.746;9.000;2024-01-06T08:02:32;6.40;99.90
3262;DHT22;1643;47.746;9.000;2024-01-06T08:04:57;6.40;99.90
3262;DHT22;1643;47.746;9.000;2024-01-06T08:07:23;6.40;99.90
3262;DHT22;1643;47.746;9.000;2024-01-06T08:09:49;6.30;99.90
3262;DHT22;1643;47.746;9.000;2024-01-06T08:12:15;6.40;99.90
3262;DHT22;1643;47.746;9.000;2024-01-06T08:14:41;6.40;99.90
3262;DHT22;1643;47.746;9.000;2024-01-06T08:17:06;6.40;99.90
3262;DHT22;1643;47.746;9.000;2024-01-06T08:19:32;6.40;99.90
3262;DHT22;1643;47.746;9.000;2024-01-06T08:21:59;6.50;99.90
3262;DHT22;1643;47.746;9.000;2024-01-06T08:24:24;6.50;99.90
3262;DHT22;1643;47.746;9.000;2024-01-06T08:26:50;6.60;99.90
3262;DHT22;1643;47.746;9.000;2024-01-06T08:29:16;6.60;99.90
3262;DHT22;1643;47.746;9.000;2024-01-06T08:31:44;6.50;99.90
3262;DHT22;1643;47.746;9.000;2024-01-06T08:34:10;6.80;99.90
3262;DHT22;1643;47.746;9.000;2024-01-06T08:36:36;6.60;99.90
3262;DHT22;1643;47.746;9.000;2024-01-06T08:39:01;6.60;99.90
3262;DHT22;1643;47.746;9.000;2024-01-06T08:41:27;6.60;99.90
3262;DHT22;1643;47.746;9.000;2024-01-06T08:43:53;6.60;99.90
3262;DHT22;1643;47.746;9.000;2024-01-06T08:46:19;6.70;99.90
3262;DHT22;1643;47.746;9.000;2024-01-06T08:48:45;6.70;99.90
3262;DHT22;1643;47.746;9.000;2024-01-06T08:51:11;6.70;99.90
3262;DHT22;1643;47.746;9.000;2024-01-06T08:53:36;6.80;99.90
3262;DHT22;1643;47.746;9.000;2024-01-06T08:56:03;6.80;99.90
3262;DHT22;1643;47.746;9.000;2024-01-06T08:58:28;6.80;99.90
3262;DHT22;1643;47.746;9.000;2024-01-06T09:00:54;6.80;99.90
3262;DHT22;1643;47.746;9.000;2024-01-06T09:03:20;6.80;99.90
3262;DHT22;1643;47.746;9.000;2024-01-06T09:05:56;6.80;99.90
3262;DHT22;1643;47.746;9.000;2024-01-06T09:08:23;6.80;99.90
3262;DHT22;1643;47.746;9.000;2024-01-06T09:10:49;6.90;99.90
3262;DHT22;1643;47.746;9.000;2024-01-06T09:13:17;6.80;99.90
3262;DHT22;1643;47.746;9.000;2024-01-06T09:15:43;6.80;99.90
3262;DHT22;1643;47.746;9.000;2024-01-06T09:18:09;6.90;99.90
3262;DHT22;1643;47.746;9.000;2024-01-06T09:20:35;6.80;99.90
3262;DHT22;1643;47.746;9.000;2024-01-06T09:23:00;6.80;99.90
3262;DHT22;1643;47.746;9.000;2024-01-06T09:25:26;6.90;99.90
3262;DHT22;1643;47.746;9.000;2024-01-06T09:27:52;6.80;99.90
3262;DHT22;1643;47.746;9.000;2024-01-06T09:30:18;6.80;99.90
3262;DHT22;1643;47.746;9.000;2024-01-06T09:32:44;6.90;99.90
3262;DHT22;1643;47.746;9.000;2024-01-06T09:35:10;6.90;99.90
3262;DHT22;1643;47.746;9.000;2024-01-06T09:37:35;6.80;99.90
3262;DHT22;1643;47.746;9.000;2024-01-06T09:40:01;6.90;99.90
3262;DHT22;1643;47.746;9.000;2024-01-06T09:42:26;6.90;99.90
3262;DHT22;1643;47.746;9.000;2024-01-06T09:44:52;6.90;99.90
3262;DHT22;1643;47.746;9.000;2024-01-06T09:47:18;6.90;99.90
3262;DHT22;1643;47.746;9.000;2024-01-06T09:49:49;7.00;99.90
3262;DHT22;1643;47.746;9.000;2024-01-06T09:52:15;7.00;99.90
3262;DHT22;1643;47.746;9.000;2024-01-06T09:54:51;7.00;99.90
3262;DHT22;1643;47.746;9.000;2024-01-06T09:57:17;7.00;99.90
3262;DHT22;1643;47.746;9.000;2024-01-06T09:59:46;7.00;99.90
3262;DHT22;1643;47.746;9.000;2024-01-06T10:02:16;7.10;99.90
3262;DHT22;1643;47.746;9.000;2024-01-06T10:04:45;7.10;99.90
3262;DHT22;1643;47.746;9.000;2024-01-06T10:07:11;7.10;99.90
3262;DHT22;1643;47.746;9.000;2024-01-06T10:09:42;7.10;99.90
3262;DHT22;1643;47.746;9.000;2024-01-06T10:12:08;7.20;99.90
3262;DHT22;1643;47.746;9.000;2024-01-06T10:14:35;7.10;99.90
3262;DHT22;1643;47.746;9.000;2024-01-06T10:17:01;7.10;99.90
3262;DHT22;1643;47.746;9.000;2024-01-06T10:19:27;7.10;99.90
3262;DHT22;1643;47.746;9.000;2024-01-06T10:21:52;7.10;99.90
3262;DHT22;1643;47.746;9.000;2024-01-06T10:24:18;7.10;99.90
3262;DHT22;1643;47.746;9.000;2024-01-06T10:26:47;7.00;99.90
3262;DHT22;1643;47.746;9.000;2024-01-06T10:29:13;7.10;99.90
3262;DHT22;1643;47.746;9.000;2024-01-06T10:31:39;7.10;99.90
3262;DHT22;1643;47.746;9.000;2024-01-06T10:34:05;7.20;99.90
3262;DHT22;1643;47.746;9.000;2024-01-06T10:36:31;7.10;99.90
3262;DHT22;1643;47.746;9.000;2024-01-06T10:38:57;7.10;99.90
3262;DHT22;1643;47.746;9.000;2024-01-06T10:41:24;7.10;99.90
3262;DHT22;1643;47.746;9.000;2024-01-06T10:43:51;7.10;99.90
3262;DHT22;1643;47.746;9.000;2024-01-06T10:46:19;7.10;99.90
3262;DHT22;1643;47.746;9.000;2024-01-06T10:48:45;7.20;99.90
3262;DHT22;1643;47.746;9.000;2024-01-06T10:51:12;7.20;99.90
3262;DHT22;1643;47.746;9.000;2024-01-06T10:53:40;7.30;99.90
3262;DHT22;1643;47.746;9.000;2024-01-06T10:56:07;7.30;99.90
3262;DHT22;1643;47.746;9.000;2024-01-06T10:58:47;7.30;99.90
3262;DHT22;1643;47.746;9.000;2024-01-06T11:01:19;7.40;99.90
3262;DHT22;1643;47.746;9.000;2024-01-06T11:03:45;7.30;99.90
3262;DHT22;1643;47.746;9.000;2024-01-06T11:06:13;7.30;99.90
3262;DHT22;1643;47.746;9.000;2024-01-06T11:09:02;7.40;99.90
3262;DHT22;1643;47.746;9.000;2024-01-06T11:11:30;7.40;99.90
3262;DHT22;1643;47.746;9.000;2024-01-06T11:16:45;7.40;99.90
3262;DHT22;1643;47.746;9.000;2024-01-06T11:22:27;7.30;99.90
3262;DHT22;1643;47.746;9.000;2024-01-06T11:25:06;7.30;99.90
3262;DHT22;1643;47.746;9.000;2024-01-06T11:27:33;7.30;99.90
3262;DHT22;1643;47.746;9.000;2024-01-06T11:30:00;7.40;99.90
3262;DHT22;1643;47.746;9.000;2024-01-06T11:32:30;7.40;99.90
3262;DHT22;1643;47.746;9.000;2024-01-06T11:35:09;7.40;99.90
3262;DHT22;1643;47.746;9.000;2024-01-06T11:37:36;7.40;99.90
3262;DHT22;1643;47.746;9.000;2024-01-06T11:40:03;7.40;99.90
3262;DHT22;1643;47.746;9.000;2024-01-06T11:42:33;7.40;99.90
3262;DHT22;1643;47.746;9.000;2024-01-06T11:45:07;7.40;99.90
3262;DHT22;1643;47.746;9.000;2024-01-06T11:47:33;7.30;99.90
3262;DHT22;1643;47.746;9.000;2024-01-06T11:50:00;7.30;99.90
3262;DHT22;1643;47.746;9.000;2024-01-06T11:52:33;7.30;99.90
3262;DHT22;1643;47.746;9.000;2024-01-06T11:55:00;7.30;99.90
3262;DHT22;1643;47.746;9.000;2024-01-06T11:57:29;7.30;99.90
3262;DHT22;1643;47.746;9.000;2024-01-06T11:59:55;7.30;99.90
3262;DHT22;1643;47.746;9.000;2024-01-06T12:02:21;7.30;99.90
3262;DHT22;1643;47.746;9.000;2024-01-06T12:04:50;7.30;99.90
3262;DHT22;1643;47.746;9.000;2024-01-06T12:07:17;7.30;99.90
3262;DHT22;1643;47.746;9.000;2024-01-06T12:09:43;7.20;99.90
3262;DHT22;1643;47.746;9.000;2024-01-06T12:12:09;7.20;99.90
3262;DHT22;1643;47.746;9.000;2024-01-06T12:14:40;7.20;99.90
3262;DHT22;1643;47.746;9.000;2024-01-06T12:17:07;7.20;99.90
3262;DHT22;1643;47.746;9.000;2024-01-06T12:19:33;7.20;99.90
3262;DHT22;1643;47.746;9.000;2024-01-06T12:21:59;7.20;99.90
3262;DHT22;1643;47.746;9.000;2024-01-06T12:24:29;7.10;99.90
3262;DHT22;1643;47.746;9.000;2024-01-06T12:26:56;7.20;99.90
3262;DHT22;1643;47.746;9.000;2024-01-06T12:29:25;7.20;99.90
3262;DHT22;1643;47.746;9.000;2024-01-06T12:31:52;7.30;99.90
3262;DHT22;1643;47.746;9.000;2024-01-06T12:34:18;7.30;99.90
3262;DHT22;1643;47.746;9.000;2024-01-06T12:36:44;7.30;99.90
3262;DHT22;1643;47.746;9.000;2024-01-06T12:39:13;7.30;99.90
3262;DHT22;1643;47.746;9.000;2024-01-06T12:41:42;7.30;99.90
3262;DHT22;1643;47.746;9.000;2024-01-06T12:44:08;7.30;99.90
3262;DHT22;1643;47.746;9.000;2024-01-06T12:46:34;7.30;99.90
3262;DHT22;1643;47.746;9.000;2024-01-06T12:49:00;7.40;99.90
3262;DHT22;1643;47.746;9.000;2024-01-06T12:51:26;7.40;99.90
3262;DHT22;1643;47.746;9.000;2024-01-06T12:53:52;7.40;99.90
3262;DHT22;1643;47.746;9.000;2024-01-06T12:56:17;7.40;99.90
3262;DHT22;1643;47.746;9.000;2024-01-06T12:58:43;7.40;99.90
3262;DHT22;1643;47.746;9.000;2024-01-06T13:01:09;7.30;99.90
3262;DHT22;1643;47.746;9.000;2024-01-06T13:03:35;7.30;99.90
3262;DHT22;1643;47.746;9.000;2024-01-06T13:06:01;7.40;99.90
3262;DHT22;1643;47.746;9.000;2024-01-06T13:08:28;7.40;99.90
3262;DHT22;1643;47.746;9.000;2024-01-06T13:10:54;7.40;99.90
3262;DHT22;1643;47.746;9.000;2024-01-06T13:13:20;7.30;99.90
3262;DHT22;1643;47.746;9.000;2024-01-06T13:15:45;7.30;99.90
3262;DHT22;1643;47.746;9.000;2024-01-06T13:18:12;7.30;99.90
3262;DHT22;1643;47.746;9.000;2024-01-06T13:20:38;7.30;99.90
3262;DHT22;1643;47.746;9.000;2024-01-06T13:23:06;7.30;99.90
3262;DHT22;1643;47.746;9.000;2024-01-06T13:25:33;7.40;99.90
3262;DHT22;1643;47.746;9.000;2024-01-06T13:27:58;7.40;99.90
3262;DHT22;1643;47.746;9.000;2024-01-06T13:30:25;7.30;99.90
3262;DHT22;1643;47.746;9.000;2024-01-06T13:32:54;7.20;99.90
3262;DHT22;1643;47.746;9.000;2024-01-06T13:35:20;7.20;99.90
3262;DHT22;1643;47.746;9.000;2024-01-06T13:37:46;7.20;99.90
3262;DHT22;1643;47.746;9.000;2024-01-06T13:40:14;7.20;99.90
3262;DHT22;1643;47.746;9.000;2024-01-06T13:42:40;7.20;99.90
3262;DHT22;1643;47.746;9.000;2024-01-06T13:45:06;7.20;99.90
3262;DHT22;1643;47.746;9.000;2024-01-06T13:47:32;7.20;99.90
3262;DHT22;1643;47.746;9.000;2024-01-06T13:49:58;7.20;99.90
3262;DHT22;1643;47.746;9.000;2024-01-06T13:52:24;7.30;99.90
3262;DHT22;1643;47.746;9.000;2024-01-06T13:54:50;7.30;99.90
3262;DHT22;1643;47.746;9.000;2024-01-06T13:57:15;7.30;99.90
3262;DHT22;1643;47.746;9.000;2024-01-06T13:59:41;7.30;99.90
3262;DHT22;1643;47.746;9.000;2024-01-06T14:02:08;7.30;99.90
3262;DHT22;1643;47.746;9.000;2024-01-06T14:04:35;7.30;99.90
3262;DHT22;1643;47.746;9.000;2024-01-06T14:07:01;7.30;99.90
3262;DHT22;1643;47.746;9.000;2024-01-06T14:09:28;7.30;99.90
3262;DHT22;1643;47.746;9.000;2024-01-06T14:11:53;7.20;99.90
3262;DHT22;1643;47.746;9.000;2024-01-06T14:14:20;7.20;99.90
3262;DHT22;1643;47.746;9.000;2024-01-06T14:16:46;7.20;99.90
3262;DHT22;1643;47.746;9.000;2024-01-06T14:19:13;7.20;99.90
3262;DHT22;1643;47.746;9.000;2024-01-06T14:21:39;7.20;99.90
3262;DHT22;1643;47.746;9.000;2024-01-06T14:24:05;7.30;99.90
3262;DHT22;1643;47.746;9.000;2024-01-06T14:26:31;7.30;99.90
3262;DHT22;1643;47.746;9.000;2024-01-06T14:28:58;7.30;99.90
3262;DHT22;1643;47.746;9.000;2024-01-06T14:31:24;7.30;99.90
3262;DHT22;1643;47.746;9.000;2024-01-06T14:33:50;7.30;99.90
3262;DHT22;1643;47.746;9.000;2024-01-06T14:36:16;7.20;99.90
3262;DHT22;1643;47.746;9.000;2024-01-06T14:38:41;7.30;99.90
3262;DHT22;1643;47.746;9.000;2024-01-06T14:41:07;7.30;99.90
3262;DHT22;1643;47.746;9.000;2024-01-06T14:43:33;7.30;99.90
3262;DHT22;1643;47.746;9.000;2024-01-06T14:45:58;7.30;99.90
3262;DHT22;1643;47.746;9.000;2024-01-06T14:48:24;7.30;99.90
3262;DHT22;1643;47.746;9.000;2024-01-06T14:50:50;7.30;99.90
3262;DHT22;1643;47.746;9.000;2024-01-06T14:53:16;7.30;99.90
3262;DHT22;1643;47.746;9.000;2024-01-06T14:55:42;7.20;99.90
3262;DHT22;1643;47.746;9.000;2024-01-06T14:58:07;7.30;99.90
3262;DHT22;1643;47.746;9.000;2024-01-06T15:00:35;7.20;99.90
3262;DHT22;1643;47.746;9.000;2024-01-06T15:03:01;7.30;99.90
3262;DHT22;1643;47.746;9.000;2024-01-06T15:05:27;7.20;99.90
3262;DHT22;1643;47.746;9.000;2024-01-06T15:07:56;7.30;99.90
3262;DHT22;1643;47.746;9.000;2024-01-06T15:10:21;7.20;99.90
3262;DHT22;1643;47.746;9.000;2024-01-06T15:12:47;7.20;99.90
3262;DHT22;1643;47.746;9.000;2024-01-06T15:15:14;7.20;99.90
3262;DHT22;1643;47.746;9.000;2024-01-06T15:17:39;7.20;99.90
3262;DHT22;1643;47.746;9.000;2024-01-06T15:20:06;7.20;99.90
3262;DHT22;1643;47.746;9.000;2024-01-06T15:22:31;7.20;99.90
3262;DHT22;1643;47.746;9.000;2024-01-06T15:24:57;7.20;99.90
3262;DHT22;1643;47.746;9.000;2024-01-06T15:27:25;7.20;99.90
3262;DHT22;1643;47.746;9.000;2024-01-06T15:29:50;7.20;99.90
3262;DHT22;1643;47.746;9.000;2024-01-06T15:32:16;7.20;99.90
3262;DHT22;1643;47.746;9.000;2024-01-06T15:34:42;7.20;99.90
3262;DHT22;1643;47.746;9.000;2024-01-06T15:37:07;7.20;99.90
3262;DHT22;1643;47.746;9.000;2024-01-06T15:39:33;7.20;99.90
3262;DHT22;1643;47.746;9.000;2024-01-06T15:41:58;7.20;99.90
3262;DHT22;1643;47.746;9.000;2024-01-06T15:44:24;7.10;99.90
3262;DHT22;1643;47.746;9.000;2024-01-06T15:46:50;7.10;99.90
3262;DHT22;1643;47.746;9.000;2024-01-06T15:49:17;7.10;99.90
3262;DHT22;1643;47.746;9.000;2024-01-06T15:51:44;7.10;99.90
3262;DHT22;1643;47.746;9.000;2024-01-06T15:54:12;7.10;99.90
3262;DHT22;1643;47.746;9.000;2024-01-06T15:56:38;7.00;99.90
3262;DHT22;1643;47.746;9.000;2024-01-06T15:59:03;7.10;99.90
3262;DHT22;1643;47.746;9.000;2024-01-06T16:01:29;7.00;99.90
3262;DHT22;1643;47.746;9.000;2024-01-06T16:03:55;7.10;99.90
3262;DHT22;1643;47.746;9.000;2024-01-06T16:06:20;7.30;99.90
3262;DHT22;1643;47.746;9.000;2024-01-06T16:08:46;7.30;99.90
3262;DHT22;1643;47.746;9.000;2024-01-06T16:11:13;7.30;99.90
3262;DHT22;1643;47.746;9.000;2024-01-06T16:13:38;7.20;99.90
3262;DHT22;1643;47.746;9.000;2024-01-06T16:16:04;7.20;99.90